ADDS METAR Data INFO
IDs: Format: Raw Decoded Include TAF

Data at: 0431 UTC 21 Jan 2018

METAR for:KMGY (Dayton/Wright Brothe, OH, US)
Text:KMGY 210420Z AUTO 20007KT 1 1/2SM -RA BR BKN008 OVC013 05/04 A3009 RMK AO2 RAB14 P0000 T00500044
Temperature: 5.0°C ( 41°F)
Dewpoint: 4.4°C ( 40°F) [RH = 96%]
Pressure (altimeter):30.09 inches Hg (1019.0 mb)
Winds:from the SSW (200 degrees) at 8 MPH (7 knots; 3.6 m/s)
Visibility: 1.50 sm ( 2.41 km)
Ceiling:800 feet AGL
Clouds: broken clouds at 800 feet AGL, overcast cloud deck at 1300 feet AGL
Weather:-RA BR (light rain, mist)
QC Flag:automated observation with no human augmentation